SAS33D LEPA-EKCH
Flight info
| Callsign | SAS33D |
|---|---|
| Flight time | 2h 50m |
| Altitude | 36000 |
| Route | MEROS DCT LAPIT DCT CHELY DCT LUMAS DCT MAXIR DCT LUSOL DCT BODRU DCT OKTET DCT IRMAR DCT KINES DCT VANAS DCT MOBLO DCT UBIMA DCT SOSAL DCT KORED DCT BERSU DCT DITON DCT LOKTA DCT TEDGO DCT HAREM DCT LOHRE DCT BERXO DCT MAKEL N851 GESKA Z711 MONAK |
| Aircraft | A320/M-SDE3FGHIRWY/LB1 |
Departure
| Time | 2026-05-01 10:03 |
|---|---|
| Airport | Palma de Mallorca Airport (LEPA) |
Arrival
| Time | 2026-05-01 12:54 |
|---|---|
| Airport | Copenhagen Kastrup Airport (EKCH) |
| Time | Latitude | Longitude | Altitude | Speed | Heading |
|---|---|---|---|---|---|
| 2026-05-01 09:38 | 39.54694 | 2.73401 | 30 ft | 0 kts | 238° |
| 2026-05-01 09:55 | 39.54697 | 2.73408 | 30 ft | 2 kts | 238° |
| 2026-05-01 09:55 | 39.54705 | 2.73425 | 30 ft | 2 kts | 238° |
| 2026-05-01 09:55 | 39.54713 | 2.73441 | 30 ft | 1 kts | 239° |
| 2026-05-01 09:56 | 39.54718 | 2.73452 | 30 ft | 2 kts | 217° |
| 2026-05-01 09:56 | 39.54733 | 2.73459 | 30 ft | 2 kts | 180° |
| 2026-05-01 09:56 | 39.54744 | 2.73456 | 30 ft | 0 kts | 152° |
| 2026-05-01 09:56 | 39.54750 | 2.73451 | 30 ft | 1 kts | 148° |
| 2026-05-01 09:57 | 39.54751 | 2.73451 | 30 ft | 0 kts | 148° |
| 2026-05-01 09:59 | 39.54742 | 2.73458 | 30 ft | 4 kts | 149° |
| 2026-05-01 09:59 | 39.54699 | 2.73492 | 30 ft | 10 kts | 148° |
| 2026-05-01 09:59 | 39.54635 | 2.73547 | 29 ft | 11 kts | 133° |
| 2026-05-01 09:59 | 39.54589 | 2.73636 | 30 ft | 13 kts | 165° |
| 2026-05-01 10:00 | 39.54517 | 2.73551 | 30 ft | 16 kts | 238° |
| 2026-05-01 10:00 | 39.54451 | 2.73415 | 29 ft | 19 kts | 238° |
| 2026-05-01 10:00 | 39.54378 | 2.73261 | 30 ft | 21 kts | 238° |
| 2026-05-01 10:00 | 39.54303 | 2.73101 | 30 ft | 20 kts | 238° |
| 2026-05-01 10:01 | 39.54231 | 2.72950 | 30 ft | 17 kts | 232° |
| 2026-05-01 10:01 | 39.54160 | 2.72993 | 30 ft | 15 kts | 94° |
| 2026-05-01 10:01 | 39.54150 | 2.73130 | 29 ft | 15 kts | 96° |
| 2026-05-01 10:01 | 39.54166 | 2.73260 | 30 ft | 14 kts | 58° |
| 2026-05-01 10:02 | 39.54179 | 2.73287 | 29 ft | 0 kts | 58° |
| 2026-05-01 10:02 | 39.54199 | 2.73328 | 30 ft | 10 kts | 58° |
| 2026-05-01 10:03 | 39.54310 | 2.73565 | 30 ft | 65 kts | 59° |
| 2026-05-01 10:03 | 39.54670 | 2.74324 | 30 ft | 131 kts | 59° |
| 2026-05-01 10:03 | 39.55242 | 2.75510 | 223 ft | 167 kts | 59° |
| 2026-05-01 10:03 | 39.55852 | 2.76771 | 858 ft | 168 kts | 58° |
| 2026-05-01 10:04 | 39.56473 | 2.78065 | 1557 ft | 172 kts | 58° |
| 2026-05-01 10:04 | 39.57094 | 2.79370 | 2274 ft | 174 kts | 58° |
| 2026-05-01 10:04 | 39.57726 | 2.80758 | 2853 ft | 186 kts | 59° |
| 2026-05-01 10:04 | 39.58397 | 2.82298 | 3258 ft | 209 kts | 59° |
| 2026-05-01 10:05 | 39.59131 | 2.83990 | 3784 ft | 227 kts | 59° |
| 2026-05-01 10:05 | 39.59941 | 2.85851 | 4337 ft | 245 kts | 59° |
| 2026-05-01 10:05 | 39.60806 | 2.87837 | 4942 ft | 261 kts | 59° |
| 2026-05-01 10:05 | 39.61706 | 2.89903 | 5784 ft | 266 kts | 58° |
| 2026-05-01 10:06 | 39.62608 | 2.91969 | 6622 ft | 270 kts | 58° |
| 2026-05-01 10:06 | 39.63542 | 2.94108 | 7441 ft | 275 kts | 58° |
| 2026-05-01 10:06 | 39.64483 | 2.96260 | 8256 ft | 280 kts | 58° |
| 2026-05-01 10:06 | 39.65452 | 2.98478 | 9037 ft | 285 kts | 58° |
| 2026-05-01 10:07 | 39.66425 | 3.00706 | 9799 ft | 289 kts | 58° |
| 2026-05-01 10:07 | 39.67414 | 3.02973 | 10538 ft | 294 kts | 58° |
| 2026-05-01 10:07 | 39.68444 | 3.05334 | 10997 ft | 309 kts | 58° |
| 2026-05-01 10:07 | 39.69525 | 3.07812 | 11535 ft | 320 kts | 58° |
| 2026-05-01 10:08 | 39.71733 | 3.12896 | 12977 ft | 328 kts | 59° |
| 2026-05-01 10:08 | 39.72851 | 3.15475 | 13683 ft | 331 kts | 58° |
| 2026-05-01 10:08 | 39.73978 | 3.18075 | 14377 ft | 335 kts | 58° |
| 2026-05-01 10:09 | 39.75125 | 3.20722 | 15060 ft | 338 kts | 58° |
| 2026-05-01 10:09 | 39.76277 | 3.23374 | 15722 ft | 342 kts | 57° |
| 2026-05-01 10:09 | 39.77542 | 3.25976 | 16372 ft | 344 kts | 52° |
| 2026-05-01 10:09 | 39.79002 | 3.28479 | 17016 ft | 346 kts | 47° |
| 2026-05-01 10:10 | 39.80545 | 3.30831 | 17632 ft | 349 kts | 46° |
| 2026-05-01 10:10 | 39.82145 | 3.33219 | 18240 ft | 353 kts | 46° |
| 2026-05-01 10:10 | 39.85385 | 3.38051 | 19408 ft | 359 kts | 46° |
| 2026-05-01 10:11 | 39.87030 | 3.40516 | 19977 ft | 362 kts | 46° |
| 2026-05-01 10:11 | 39.88692 | 3.43012 | 20541 ft | 365 kts | 46° |
| 2026-05-01 10:11 | 39.90343 | 3.45494 | 21091 ft | 369 kts | 46° |
| 2026-05-01 10:11 | 39.92030 | 3.48034 | 21639 ft | 372 kts | 46° |
| 2026-05-01 10:12 | 39.93721 | 3.50583 | 22173 ft | 375 kts | 46° |
| 2026-05-01 10:12 | 39.94855 | 3.52294 | 22527 ft | 377 kts | 46° |
| 2026-05-01 10:12 | 39.98866 | 3.58353 | 23725 ft | 384 kts | 46° |
| 2026-05-01 10:13 | 40.00627 | 3.61017 | 24226 ft | 387 kts | 46° |
| 2026-05-01 10:13 | 40.02360 | 3.63641 | 24706 ft | 390 kts | 46° |
| 2026-05-01 10:13 | 40.04136 | 3.66335 | 25199 ft | 392 kts | 46° |
| 2026-05-01 10:14 | 40.07690 | 3.71756 | 26110 ft | 397 kts | 46° |
| 2026-05-01 10:14 | 40.09498 | 3.74512 | 26548 ft | 400 kts | 46° |
| 2026-05-01 10:14 | 40.11308 | 3.77261 | 26972 ft | 403 kts | 46° |
| 2026-05-01 10:14 | 40.13127 | 3.80013 | 27388 ft | 405 kts | 46° |
| 2026-05-01 10:15 | 40.14975 | 3.82814 | 27792 ft | 408 kts | 46° |
| 2026-05-01 10:15 | 40.16833 | 3.85636 | 28181 ft | 410 kts | 46° |
| 2026-05-01 10:15 | 40.18674 | 3.88441 | 28553 ft | 413 kts | 46° |
| 2026-05-01 10:15 | 40.20558 | 3.91315 | 28907 ft | 415 kts | 46° |
| 2026-05-01 10:16 | 40.22468 | 3.94235 | 29254 ft | 418 kts | 46° |
| 2026-05-01 10:16 | 40.24361 | 3.97131 | 29586 ft | 420 kts | 46° |
| 2026-05-01 10:16 | 40.28171 | 4.02970 | 30212 ft | 424 kts | 46° |
| 2026-05-01 10:17 | 40.30083 | 4.05906 | 30511 ft | 426 kts | 46° |
| 2026-05-01 10:17 | 40.33939 | 4.11833 | 31065 ft | 430 kts | 46° |
| 2026-05-01 10:17 | 40.35861 | 4.14791 | 31324 ft | 432 kts | 46° |
| 2026-05-01 10:18 | 40.39767 | 4.20813 | 31837 ft | 435 kts | 46° |
| 2026-05-01 10:18 | 40.41721 | 4.23831 | 32087 ft | 436 kts | 46° |
| 2026-05-01 10:18 | 40.43691 | 4.26877 | 32342 ft | 437 kts | 46° |
| 2026-05-01 10:19 | 40.45720 | 4.29832 | 32650 ft | 435 kts | 41° |
| 2026-05-01 10:19 | 40.47984 | 4.32469 | 32958 ft | 431 kts | 34° |
| 2026-05-01 10:19 | 40.50413 | 4.34672 | 33247 ft | 427 kts | 27° |
| 2026-05-01 10:20 | 40.55751 | 4.37841 | 33808 ft | 420 kts | 13° |
| 2026-05-01 10:20 | 40.58555 | 4.38774 | 34092 ft | 416 kts | 7° |
| 2026-05-01 10:20 | 40.61376 | 4.39466 | 34377 ft | 415 kts | 6° |
| 2026-05-01 10:20 | 40.64205 | 4.40114 | 34617 ft | 415 kts | 6° |
| 2026-05-01 10:21 | 40.67051 | 4.40768 | 34824 ft | 416 kts | 6° |
| 2026-05-01 10:21 | 40.72758 | 4.42109 | 35210 ft | 418 kts | 6° |
| 2026-05-01 10:21 | 40.75590 | 4.42784 | 35402 ft | 418 kts | 6° |
| 2026-05-01 10:22 | 40.81321 | 4.44161 | 35783 ft | 419 kts | 6° |
| 2026-05-01 10:22 | 40.87046 | 4.45536 | 36107 ft | 421 kts | 6° |
| 2026-05-01 10:23 | 40.89906 | 4.46224 | 36186 ft | 422 kts | 6° |
| 2026-05-01 10:23 | 40.98559 | 4.48323 | 36203 ft | 423 kts | 6° |
| 2026-05-01 10:24 | 41.10000 | 4.51113 | 36204 ft | 419 kts | 4° |
| 2026-05-01 10:25 | 41.21378 | 4.53870 | 36204 ft | 418 kts | 4° |
| 2026-05-01 10:26 | 41.27086 | 4.55261 | 36204 ft | 418 kts | 4° |
| 2026-05-01 10:27 | 41.38467 | 4.58048 | 36204 ft | 418 kts | 4° |
| 2026-05-01 10:28 | 41.47011 | 4.60148 | 36204 ft | 418 kts | 4° |
| 2026-05-01 10:28 | 41.55555 | 4.62256 | 36204 ft | 418 kts | 4° |
| 2026-05-01 10:29 | 41.64093 | 4.64367 | 36205 ft | 418 kts | 4° |
| 2026-05-01 10:30 | 41.75264 | 4.68891 | 36239 ft | 429 kts | 18° |
| 2026-05-01 10:31 | 41.85780 | 4.76677 | 36274 ft | 434 kts | 25° |
| 2026-05-01 10:32 | 41.93513 | 4.82941 | 36283 ft | 433 kts | 25° |
| 2026-05-01 10:33 | 42.03724 | 4.91208 | 36286 ft | 428 kts | 24° |
| 2026-05-01 10:34 | 42.11327 | 4.97374 | 36288 ft | 423 kts | 24° |
| 2026-05-01 10:34 | 42.16336 | 5.01428 | 36286 ft | 420 kts | 24° |
| 2026-05-01 10:35 | 42.23761 | 5.07465 | 36285 ft | 416 kts | 24° |
| 2026-05-01 10:35 | 42.28686 | 5.11482 | 36285 ft | 416 kts | 24° |
| 2026-05-01 10:36 | 42.36071 | 5.17525 | 36284 ft | 416 kts | 24° |
| 2026-05-01 10:37 | 42.41025 | 5.21589 | 36284 ft | 416 kts | 24° |
| 2026-05-01 10:37 | 42.48416 | 5.27668 | 36284 ft | 416 kts | 24° |
| 2026-05-01 10:38 | 42.53336 | 5.31724 | 36285 ft | 416 kts | 24° |
| 2026-05-01 10:38 | 42.58250 | 5.35783 | 36288 ft | 416 kts | 24° |
| 2026-05-01 10:39 | 42.63161 | 5.39846 | 36292 ft | 416 kts | 24° |
| 2026-05-01 10:39 | 42.68106 | 5.43945 | 36296 ft | 416 kts | 24° |
| 2026-05-01 10:40 | 42.73004 | 5.48014 | 36301 ft | 416 kts | 24° |
| 2026-05-01 10:40 | 42.77935 | 5.52117 | 36303 ft | 416 kts | 24° |
| 2026-05-01 10:41 | 42.82863 | 5.56226 | 36302 ft | 416 kts | 24° |
| 2026-05-01 10:42 | 42.90203 | 5.62362 | 36298 ft | 416 kts | 24° |
| 2026-05-01 10:42 | 42.95131 | 5.66498 | 36295 ft | 418 kts | 24° |
| 2026-05-01 10:43 | 43.00073 | 5.70674 | 36299 ft | 421 kts | 23° |
| 2026-05-01 10:43 | 43.05059 | 5.74878 | 36303 ft | 423 kts | 23° |
| 2026-05-01 10:44 | 43.10074 | 5.79100 | 36308 ft | 424 kts | 23° |
| 2026-05-01 10:44 | 43.15046 | 5.83279 | 36311 ft | 424 kts | 23° |
| 2026-05-01 10:45 | 43.20070 | 5.87516 | 36312 ft | 424 kts | 23° |
| 2026-05-01 10:45 | 43.25064 | 5.91743 | 36312 ft | 424 kts | 23° |
| 2026-05-01 10:46 | 43.30067 | 5.95990 | 36312 ft | 424 kts | 23° |
| 2026-05-01 10:46 | 43.35124 | 5.99999 | 36312 ft | 418 kts | 17° |
| 2026-05-01 10:47 | 43.40436 | 6.02898 | 36313 ft | 408 kts | 8° |
| 2026-05-01 10:47 | 43.45913 | 6.04595 | 36312 ft | 399 kts | 0° |
| 2026-05-01 10:48 | 43.51374 | 6.05291 | 36312 ft | 395 kts | 356° |
| 2026-05-01 10:48 | 43.56836 | 6.05822 | 36311 ft | 395 kts | 356° |
| 2026-05-01 10:49 | 43.62285 | 6.06358 | 36312 ft | 395 kts | 356° |
| 2026-05-01 10:49 | 43.67751 | 6.06904 | 36313 ft | 395 kts | 356° |
| 2026-05-01 10:50 | 43.73216 | 6.07850 | 36312 ft | 401 kts | 2° |
| 2026-05-01 10:50 | 43.78649 | 6.09719 | 36312 ft | 409 kts | 9° |
| 2026-05-01 10:51 | 43.83986 | 6.12552 | 36313 ft | 416 kts | 16° |
| 2026-05-01 10:51 | 43.89197 | 6.16049 | 36312 ft | 418 kts | 17° |
| 2026-05-01 10:52 | 43.94395 | 6.19610 | 36312 ft | 418 kts | 17° |
| 2026-05-01 10:52 | 43.99587 | 6.23166 | 36312 ft | 418 kts | 17° |
| 2026-05-01 10:53 | 44.04765 | 6.26716 | 36311 ft | 418 kts | 17° |
| 2026-05-01 10:53 | 44.09981 | 6.30295 | 36312 ft | 419 kts | 17° |
| 2026-05-01 10:54 | 44.15178 | 6.33859 | 36316 ft | 418 kts | 17° |
| 2026-05-01 10:54 | 44.20383 | 6.37442 | 36320 ft | 418 kts | 17° |
| 2026-05-01 10:55 | 44.25597 | 6.41042 | 36326 ft | 418 kts | 17° |
| 2026-05-01 10:55 | 44.30780 | 6.44627 | 36330 ft | 418 kts | 17° |
| 2026-05-01 10:56 | 44.35978 | 6.48230 | 36334 ft | 418 kts | 17° |
| 2026-05-01 10:56 | 44.41149 | 6.51821 | 36337 ft | 418 kts | 17° |
| 2026-05-01 10:57 | 44.46347 | 6.55441 | 36342 ft | 418 kts | 17° |
| 2026-05-01 10:57 | 44.51550 | 6.59068 | 36351 ft | 419 kts | 17° |
| 2026-05-01 10:58 | 44.56755 | 6.62704 | 36364 ft | 418 kts | 17° |
| 2026-05-01 10:58 | 44.61916 | 6.66322 | 36375 ft | 418 kts | 18° |
| 2026-05-01 10:59 | 44.67128 | 6.70001 | 36386 ft | 419 kts | 18° |
| 2026-05-01 10:59 | 44.72321 | 6.73651 | 36394 ft | 417 kts | 17° |
| 2026-05-01 11:00 | 44.77627 | 6.76557 | 36403 ft | 407 kts | 8° |
| 2026-05-01 11:00 | 44.83067 | 6.78165 | 36413 ft | 398 kts | 359° |
| 2026-05-01 11:01 | 44.88511 | 6.78516 | 36418 ft | 390 kts | 351° |
| 2026-05-01 11:01 | 44.93902 | 6.78184 | 36419 ft | 389 kts | 350° |
| 2026-05-01 11:02 | 44.99329 | 6.77813 | 36417 ft | 392 kts | 351° |
| 2026-05-01 11:02 | 45.04813 | 6.77437 | 36416 ft | 399 kts | 351° |
| 2026-05-01 11:03 | 45.10410 | 6.77057 | 36417 ft | 408 kts | 351° |
| 2026-05-01 11:03 | 45.16118 | 6.76681 | 36418 ft | 414 kts | 352° |
| 2026-05-01 11:04 | 45.21836 | 6.76307 | 36405 ft | 414 kts | 352° |
| 2026-05-01 11:04 | 45.27585 | 6.75921 | 36381 ft | 414 kts | 352° |
| 2026-05-01 11:05 | 45.33326 | 6.75535 | 36358 ft | 414 kts | 352° |
| 2026-05-01 11:05 | 45.39037 | 6.75153 | 36346 ft | 414 kts | 352° |
| 2026-05-01 11:06 | 45.44774 | 6.74769 | 36342 ft | 415 kts | 352° |
| 2026-05-01 11:06 | 45.50516 | 6.74384 | 36341 ft | 415 kts | 352° |
| 2026-05-01 11:07 | 45.59111 | 6.73799 | 36340 ft | 414 kts | 352° |
| 2026-05-01 11:07 | 45.64875 | 6.73402 | 36338 ft | 414 kts | 352° |
| 2026-05-01 11:08 | 45.70614 | 6.73004 | 36328 ft | 414 kts | 352° |
| 2026-05-01 11:09 | 45.79223 | 6.72406 | 36305 ft | 415 kts | 352° |
| 2026-05-01 11:09 | 45.84944 | 6.72017 | 36294 ft | 415 kts | 352° |
| 2026-05-01 11:10 | 45.93554 | 6.71435 | 36287 ft | 415 kts | 352° |
| 2026-05-01 11:10 | 45.99320 | 6.71039 | 36284 ft | 415 kts | 352° |
| 2026-05-01 11:11 | 46.05048 | 6.70662 | 36276 ft | 416 kts | 353° |
| 2026-05-01 11:11 | 46.10873 | 6.70898 | 36269 ft | 420 kts | 359° |
| 2026-05-01 11:12 | 46.16671 | 6.72102 | 36264 ft | 425 kts | 6° |
| 2026-05-01 11:12 | 46.22405 | 6.74231 | 36261 ft | 430 kts | 10° |
| 2026-05-01 11:13 | 46.28118 | 6.76661 | 36261 ft | 430 kts | 11° |
| 2026-05-01 11:13 | 46.33828 | 6.79094 | 36267 ft | 430 kts | 11° |
| 2026-05-01 11:14 | 46.39556 | 6.81528 | 36277 ft | 430 kts | 10° |
| 2026-05-01 11:14 | 46.45245 | 6.83950 | 36285 ft | 430 kts | 10° |
| 2026-05-01 11:15 | 46.50889 | 6.86779 | 36290 ft | 436 kts | 19° |
| 2026-05-01 11:15 | 46.56082 | 6.91171 | 36295 ft | 432 kts | 31° |
| 2026-05-01 11:16 | 46.60546 | 6.97021 | 36306 ft | 439 kts | 43° |
| 2026-05-01 11:16 | 46.64433 | 7.03900 | 36310 ft | 440 kts | 46° |
| 2026-05-01 11:17 | 46.68226 | 7.10839 | 36307 ft | 438 kts | 45° |
| 2026-05-01 11:17 | 46.72037 | 7.17769 | 36307 ft | 436 kts | 45° |
| 2026-05-01 11:18 | 46.75809 | 7.24612 | 36309 ft | 435 kts | 45° |
| 2026-05-01 11:18 | 46.79571 | 7.31443 | 36308 ft | 435 kts | 45° |
| 2026-05-01 11:19 | 46.83354 | 7.38337 | 36301 ft | 435 kts | 45° |
| 2026-05-01 11:19 | 46.87115 | 7.45222 | 36295 ft | 434 kts | 45° |
| 2026-05-01 11:20 | 46.90866 | 7.52129 | 36288 ft | 435 kts | 45° |
| 2026-05-01 11:20 | 46.94620 | 7.59051 | 36286 ft | 438 kts | 44° |
| 2026-05-01 11:21 | 46.98401 | 7.66031 | 36282 ft | 441 kts | 44° |
| 2026-05-01 11:21 | 47.02202 | 7.73088 | 36284 ft | 445 kts | 44° |
| 2026-05-01 11:22 | 47.06035 | 7.80201 | 36286 ft | 447 kts | 43° |
| 2026-05-01 11:22 | 47.09905 | 7.87388 | 36288 ft | 448 kts | 43° |
| 2026-05-01 11:23 | 47.13681 | 7.94594 | 36292 ft | 451 kts | 47° |
| 2026-05-01 11:23 | 47.17124 | 8.02415 | 36300 ft | 455 kts | 50° |
| 2026-05-01 11:24 | 47.20452 | 8.10280 | 36306 ft | 455 kts | 50° |
| 2026-05-01 11:25 | 47.25456 | 8.22077 | 36311 ft | 455 kts | 50° |
| 2026-05-01 11:25 | 47.31159 | 8.32871 | 36315 ft | 440 kts | 36° |
| 2026-05-01 11:26 | 47.38142 | 8.41124 | 36328 ft | 425 kts | 23° |
| 2026-05-01 11:27 | 47.43089 | 8.45862 | 36335 ft | 424 kts | 23° |
| 2026-05-01 11:27 | 47.48016 | 8.50596 | 36338 ft | 424 kts | 23° |
| 2026-05-01 11:28 | 47.52929 | 8.55352 | 36339 ft | 426 kts | 23° |
| 2026-05-01 11:28 | 47.57882 | 8.60171 | 36339 ft | 426 kts | 23° |
| 2026-05-01 11:29 | 47.65263 | 8.67386 | 36337 ft | 427 kts | 24° |
| 2026-05-01 11:30 | 47.72676 | 8.74685 | 36339 ft | 427 kts | 24° |
| 2026-05-01 11:30 | 47.77603 | 8.79532 | 36339 ft | 427 kts | 24° |
| 2026-05-01 11:31 | 47.82512 | 8.84367 | 36339 ft | 426 kts | 24° |
| 2026-05-01 11:31 | 47.87444 | 8.89234 | 36339 ft | 426 kts | 24° |
| 2026-05-01 11:32 | 47.92376 | 8.94117 | 36339 ft | 424 kts | 24° |
| 2026-05-01 11:32 | 47.97229 | 8.98930 | 36336 ft | 421 kts | 24° |
| 2026-05-01 11:33 | 48.02096 | 9.03761 | 36331 ft | 418 kts | 23° |
| 2026-05-01 11:33 | 48.06911 | 9.08551 | 36326 ft | 419 kts | 23° |
| 2026-05-01 11:34 | 48.11820 | 9.13233 | 36321 ft | 418 kts | 19° |
| 2026-05-01 11:34 | 48.17020 | 9.16811 | 36315 ft | 407 kts | 10° |
| 2026-05-01 11:35 | 48.22399 | 9.19079 | 36314 ft | 397 kts | 1° |
| 2026-05-01 11:35 | 48.27768 | 9.20206 | 36314 ft | 391 kts | 357° |
| 2026-05-01 11:36 | 48.33188 | 9.21106 | 36314 ft | 391 kts | 357° |
| 2026-05-01 11:36 | 48.38589 | 9.22007 | 36314 ft | 391 kts | 357° |
| 2026-05-01 11:37 | 48.43977 | 9.22912 | 36314 ft | 391 kts | 357° |
| 2026-05-01 11:37 | 48.49335 | 9.23814 | 36314 ft | 391 kts | 357° |
| 2026-05-01 11:38 | 48.54724 | 9.24724 | 36314 ft | 391 kts | 357° |
| 2026-05-01 11:38 | 48.60126 | 9.25641 | 36313 ft | 391 kts | 357° |
| 2026-05-01 11:39 | 48.65524 | 9.26512 | 36314 ft | 391 kts | 356° |
| 2026-05-01 11:39 | 48.70927 | 9.27331 | 36314 ft | 391 kts | 356° |
| 2026-05-01 11:40 | 48.76311 | 9.28149 | 36313 ft | 391 kts | 356° |
| 2026-05-01 11:40 | 48.81707 | 9.28974 | 36314 ft | 391 kts | 356° |
| 2026-05-01 11:41 | 48.87101 | 9.29801 | 36314 ft | 391 kts | 356° |
| 2026-05-01 11:41 | 48.92469 | 9.30626 | 36314 ft | 391 kts | 356° |
| 2026-05-01 11:42 | 48.97877 | 9.31461 | 36314 ft | 391 kts | 356° |
| 2026-05-01 11:42 | 49.03273 | 9.32304 | 36317 ft | 392 kts | 355° |
| 2026-05-01 11:43 | 49.08682 | 9.33144 | 36327 ft | 395 kts | 354° |
| 2026-05-01 11:43 | 49.14150 | 9.33992 | 36343 ft | 397 kts | 354° |
| 2026-05-01 11:44 | 49.22383 | 9.35265 | 36358 ft | 397 kts | 354° |
| 2026-05-01 11:44 | 49.27871 | 9.36119 | 36362 ft | 397 kts | 354° |
| 2026-05-01 11:45 | 49.33320 | 9.36969 | 36365 ft | 397 kts | 354° |
| 2026-05-01 11:45 | 49.38801 | 9.37827 | 36365 ft | 397 kts | 354° |
| 2026-05-01 11:46 | 49.44292 | 9.38688 | 36366 ft | 397 kts | 354° |
| 2026-05-01 11:46 | 49.49760 | 9.39548 | 36367 ft | 397 kts | 354° |
| 2026-05-01 11:47 | 49.55222 | 9.40407 | 36366 ft | 397 kts | 354° |
| 2026-05-01 11:47 | 49.60705 | 9.41273 | 36367 ft | 397 kts | 354° |
| 2026-05-01 11:48 | 49.66185 | 9.42146 | 36366 ft | 398 kts | 354° |
| 2026-05-01 11:48 | 49.71693 | 9.43024 | 36365 ft | 398 kts | 354° |
| 2026-05-01 11:49 | 49.77181 | 9.43901 | 36365 ft | 398 kts | 354° |
| 2026-05-01 11:49 | 49.82656 | 9.44776 | 36366 ft | 398 kts | 354° |
| 2026-05-01 11:50 | 49.88163 | 9.45659 | 36367 ft | 398 kts | 354° |
| 2026-05-01 11:50 | 49.93654 | 9.46540 | 36367 ft | 398 kts | 354° |
| 2026-05-01 11:51 | 49.99141 | 9.47423 | 36365 ft | 398 kts | 354° |
| 2026-05-01 11:51 | 50.04622 | 9.48318 | 36361 ft | 399 kts | 355° |
| 2026-05-01 11:52 | 50.10131 | 9.49781 | 36358 ft | 406 kts | 359° |
| 2026-05-01 11:52 | 50.15624 | 9.51615 | 36356 ft | 408 kts | 360° |
| 2026-05-01 11:53 | 50.21141 | 9.53473 | 36356 ft | 408 kts | 360° |
| 2026-05-01 11:53 | 50.26694 | 9.55343 | 36357 ft | 407 kts | 359° |
| 2026-05-01 11:54 | 50.32189 | 9.57192 | 36360 ft | 407 kts | 359° |
| 2026-05-01 11:54 | 50.37702 | 9.59050 | 36363 ft | 407 kts | 360° |
| 2026-05-01 11:55 | 50.43220 | 9.60916 | 36366 ft | 408 kts | 359° |
| 2026-05-01 11:55 | 50.48755 | 9.62791 | 36366 ft | 407 kts | 360° |
| 2026-05-01 11:56 | 50.54260 | 9.64661 | 36366 ft | 407 kts | 359° |
| 2026-05-01 11:56 | 50.59785 | 9.66560 | 36363 ft | 408 kts | 0° |
| 2026-05-01 11:57 | 50.64411 | 9.68156 | 36365 ft | 409 kts | 0° |
| 2026-05-01 11:57 | 50.70884 | 9.70379 | 36367 ft | 408 kts | 0° |
| 2026-05-01 11:58 | 50.76406 | 9.72276 | 36367 ft | 409 kts | 0° |
| 2026-05-01 11:59 | 50.84715 | 9.75133 | 36367 ft | 408 kts | 0° |
| 2026-05-01 11:59 | 50.90217 | 9.77031 | 36365 ft | 409 kts | 0° |
| 2026-05-01 12:00 | 50.98586 | 9.79924 | 36363 ft | 415 kts | 359° |
| 2026-05-01 12:01 | 51.06910 | 9.82821 | 36364 ft | 408 kts | 358° |
| 2026-05-01 12:01 | 51.12461 | 9.84737 | 36370 ft | 408 kts | 358° |
| 2026-05-01 12:02 | 51.17990 | 9.86662 | 36378 ft | 409 kts | 359° |
| 2026-05-01 12:02 | 51.23546 | 9.88866 | 36385 ft | 418 kts | 4° |
| 2026-05-01 12:03 | 51.29064 | 9.91829 | 36391 ft | 421 kts | 5° |
| 2026-05-01 12:03 | 51.34557 | 9.94890 | 36392 ft | 421 kts | 5° |
| 2026-05-01 12:04 | 51.40080 | 9.97961 | 36393 ft | 421 kts | 5° |
| 2026-05-01 12:04 | 51.45583 | 10.01021 | 36393 ft | 421 kts | 5° |
| 2026-05-01 12:05 | 51.51121 | 10.04105 | 36393 ft | 421 kts | 5° |
| 2026-05-01 12:05 | 51.59373 | 10.08711 | 36393 ft | 421 kts | 5° |
| 2026-05-01 12:06 | 51.64881 | 10.11796 | 36393 ft | 421 kts | 5° |
| 2026-05-01 12:06 | 51.70375 | 10.14881 | 36393 ft | 421 kts | 5° |
| 2026-05-01 12:07 | 51.75911 | 10.17997 | 36393 ft | 421 kts | 5° |
| 2026-05-01 12:07 | 51.81383 | 10.21086 | 36393 ft | 421 kts | 5° |
| 2026-05-01 12:08 | 51.86886 | 10.24199 | 36393 ft | 421 kts | 5° |
| 2026-05-01 12:08 | 51.92418 | 10.27338 | 36393 ft | 421 kts | 5° |
| 2026-05-01 12:09 | 51.97909 | 10.30461 | 36393 ft | 421 kts | 5° |
| 2026-05-01 12:09 | 52.03406 | 10.33595 | 36393 ft | 421 kts | 5° |
| 2026-05-01 12:10 | 52.11671 | 10.38324 | 36394 ft | 421 kts | 5° |
| 2026-05-01 12:11 | 52.19942 | 10.43068 | 36393 ft | 421 kts | 5° |
| 2026-05-01 12:11 | 52.25449 | 10.46239 | 36393 ft | 421 kts | 5° |
| 2026-05-01 12:12 | 52.30926 | 10.49403 | 36393 ft | 421 kts | 5° |
| 2026-05-01 12:12 | 52.36441 | 10.52598 | 36393 ft | 421 kts | 5° |
| 2026-05-01 12:13 | 52.41949 | 10.55797 | 36393 ft | 421 kts | 5° |
| 2026-05-01 12:13 | 52.47429 | 10.58989 | 36393 ft | 421 kts | 5° |
| 2026-05-01 12:14 | 52.52923 | 10.62197 | 36393 ft | 421 kts | 5° |
| 2026-05-01 12:14 | 52.58432 | 10.65424 | 36389 ft | 421 kts | 6° |
| 2026-05-01 12:15 | 52.63911 | 10.68666 | 36391 ft | 422 kts | 6° |
| 2026-05-01 12:15 | 52.69444 | 10.71942 | 36393 ft | 422 kts | 6° |
| 2026-05-01 12:16 | 52.74962 | 10.75207 | 36393 ft | 422 kts | 6° |
| 2026-05-01 12:16 | 52.80465 | 10.78466 | 36393 ft | 422 kts | 6° |
| 2026-05-01 12:17 | 52.85962 | 10.81729 | 36393 ft | 421 kts | 6° |
| 2026-05-01 12:17 | 52.91435 | 10.84990 | 36394 ft | 419 kts | 6° |
| 2026-05-01 12:18 | 52.96894 | 10.88249 | 36394 ft | 416 kts | 6° |
| 2026-05-01 12:18 | 53.02312 | 10.91475 | 36393 ft | 415 kts | 7° |
| 2026-05-01 12:19 | 53.07706 | 10.94696 | 36392 ft | 415 kts | 8° |
| 2026-05-01 12:19 | 53.13156 | 10.97962 | 36393 ft | 416 kts | 10° |
| 2026-05-01 12:20 | 53.18587 | 11.01244 | 36393 ft | 416 kts | 10° |
| 2026-05-01 12:20 | 53.23988 | 11.04517 | 36393 ft | 415 kts | 10° |
| 2026-05-01 12:21 | 53.29382 | 11.07793 | 36393 ft | 415 kts | 10° |
| 2026-05-01 12:21 | 53.34783 | 11.11079 | 36393 ft | 414 kts | 10° |
| 2026-05-01 12:22 | 53.40172 | 11.14365 | 36392 ft | 414 kts | 10° |
| 2026-05-01 12:22 | 53.45552 | 11.17654 | 36392 ft | 414 kts | 10° |
| 2026-05-01 12:23 | 53.50948 | 11.20962 | 36392 ft | 414 kts | 10° |
| 2026-05-01 12:23 | 53.56353 | 11.24284 | 36392 ft | 414 kts | 10° |
| 2026-05-01 12:24 | 53.61724 | 11.27594 | 36392 ft | 414 kts | 10° |
| 2026-05-01 12:24 | 53.67112 | 11.30922 | 36393 ft | 415 kts | 10° |
| 2026-05-01 12:25 | 53.75235 | 11.35960 | 36393 ft | 414 kts | 10° |
| 2026-05-01 12:26 | 53.80620 | 11.39311 | 36393 ft | 414 kts | 10° |
| 2026-05-01 12:26 | 53.88734 | 11.44377 | 36393 ft | 414 kts | 10° |
| 2026-05-01 12:27 | 53.96819 | 11.49445 | 36391 ft | 415 kts | 10° |
| 2026-05-01 12:28 | 54.04896 | 11.54531 | 35869 ft | 416 kts | 10° |
| 2026-05-01 12:28 | 54.10421 | 11.58003 | 34080 ft | 431 kts | 11° |
| 2026-05-01 12:29 | 54.13206 | 11.59764 | 33294 ft | 430 kts | 11° |
| 2026-05-01 12:29 | 54.16008 | 11.61536 | 32316 ft | 433 kts | 11° |
| 2026-05-01 12:29 | 54.21688 | 11.65128 | 30142 ft | 444 kts | 13° |
| 2026-05-01 12:30 | 54.27408 | 11.68805 | 28494 ft | 438 kts | 14° |
| 2026-05-01 12:30 | 54.30252 | 11.70639 | 27801 ft | 432 kts | 14° |
| 2026-05-01 12:30 | 54.33019 | 11.72419 | 27250 ft | 423 kts | 14° |
| 2026-05-01 12:31 | 54.35731 | 11.74158 | 26744 ft | 418 kts | 14° |
| 2026-05-01 12:31 | 54.38442 | 11.75892 | 26257 ft | 415 kts | 14° |
| 2026-05-01 12:31 | 54.41130 | 11.77614 | 25773 ft | 413 kts | 14° |
| 2026-05-01 12:31 | 54.43784 | 11.79322 | 25309 ft | 410 kts | 15° |
| 2026-05-01 12:32 | 54.46421 | 11.81207 | 24853 ft | 409 kts | 18° |
| 2026-05-01 12:32 | 54.51543 | 11.85218 | 23964 ft | 404 kts | 19° |
| 2026-05-01 12:32 | 54.54066 | 11.87215 | 23530 ft | 401 kts | 19° |
| 2026-05-01 12:33 | 54.56593 | 11.89213 | 23097 ft | 398 kts | 19° |
| 2026-05-01 12:33 | 54.59104 | 11.91196 | 22667 ft | 395 kts | 20° |
| 2026-05-01 12:33 | 54.61534 | 11.93304 | 22245 ft | 395 kts | 24° |
| 2026-05-01 12:33 | 54.63881 | 11.95712 | 21825 ft | 394 kts | 28° |
| 2026-05-01 12:34 | 54.66168 | 11.98310 | 21403 ft | 392 kts | 30° |
| 2026-05-01 12:34 | 54.68442 | 12.00956 | 20983 ft | 389 kts | 30° |
| 2026-05-01 12:34 | 54.70668 | 12.03553 | 20571 ft | 387 kts | 30° |
| 2026-05-01 12:34 | 54.72884 | 12.06135 | 20161 ft | 384 kts | 30° |
| 2026-05-01 12:35 | 54.75079 | 12.08686 | 19755 ft | 381 kts | 30° |
| 2026-05-01 12:35 | 54.77249 | 12.11207 | 19355 ft | 379 kts | 31° |
| 2026-05-01 12:35 | 54.79447 | 12.13760 | 18949 ft | 376 kts | 31° |
| 2026-05-01 12:35 | 54.81581 | 12.16242 | 18555 ft | 373 kts | 31° |
| 2026-05-01 12:36 | 54.83722 | 12.18734 | 18160 ft | 371 kts | 31° |
| 2026-05-01 12:36 | 54.85863 | 12.21228 | 17763 ft | 368 kts | 31° |
| 2026-05-01 12:36 | 54.87964 | 12.23678 | 17376 ft | 365 kts | 31° |
| 2026-05-01 12:36 | 54.90069 | 12.26138 | 16985 ft | 363 kts | 31° |
| 2026-05-01 12:37 | 54.92167 | 12.28593 | 16593 ft | 360 kts | 32° |
| 2026-05-01 12:37 | 54.94238 | 12.31021 | 16203 ft | 358 kts | 32° |
| 2026-05-01 12:37 | 54.96294 | 12.33432 | 15817 ft | 356 kts | 32° |
| 2026-05-01 12:37 | 54.98329 | 12.35819 | 15432 ft | 354 kts | 32° |
| 2026-05-01 12:38 | 55.00365 | 12.38208 | 15044 ft | 351 kts | 32° |
| 2026-05-01 12:38 | 55.02364 | 12.40546 | 14658 ft | 350 kts | 32° |
| 2026-05-01 12:38 | 55.04369 | 12.42887 | 14272 ft | 348 kts | 32° |
| 2026-05-01 12:38 | 55.06376 | 12.45230 | 13887 ft | 346 kts | 32° |
| 2026-05-01 12:39 | 55.08365 | 12.47553 | 13507 ft | 344 kts | 32° |
| 2026-05-01 12:39 | 55.10352 | 12.49878 | 13129 ft | 342 kts | 32° |
| 2026-05-01 12:39 | 55.12313 | 12.52163 | 12757 ft | 340 kts | 32° |
| 2026-05-01 12:39 | 55.14275 | 12.54450 | 12386 ft | 337 kts | 32° |
| 2026-05-01 12:40 | 55.16191 | 12.56692 | 12022 ft | 335 kts | 32° |
| 2026-05-01 12:40 | 55.18125 | 12.58962 | 11669 ft | 332 kts | 33° |
| 2026-05-01 12:40 | 55.20013 | 12.61185 | 11436 ft | 324 kts | 33° |
| 2026-05-01 12:40 | 55.21853 | 12.63343 | 11333 ft | 312 kts | 31° |
| 2026-05-01 12:41 | 55.23751 | 12.65165 | 10989 ft | 309 kts | 23° |
| 2026-05-01 12:41 | 55.25721 | 12.66493 | 10669 ft | 306 kts | 18° |
| 2026-05-01 12:41 | 55.27739 | 12.67639 | 10348 ft | 303 kts | 17° |
| 2026-05-01 12:41 | 55.29734 | 12.68734 | 10033 ft | 300 kts | 17° |
| 2026-05-01 12:42 | 55.31720 | 12.69835 | 9719 ft | 298 kts | 17° |
| 2026-05-01 12:42 | 55.33692 | 12.70945 | 9408 ft | 295 kts | 18° |
| 2026-05-01 12:42 | 55.35613 | 12.72037 | 9105 ft | 293 kts | 18° |
| 2026-05-01 12:42 | 55.37567 | 12.73153 | 8943 ft | 297 kts | 18° |
| 2026-05-01 12:43 | 55.39518 | 12.74271 | 8734 ft | 299 kts | 18° |
| 2026-05-01 12:43 | 55.41497 | 12.75404 | 8411 ft | 296 kts | 19° |
| 2026-05-01 12:43 | 55.43451 | 12.76525 | 8098 ft | 294 kts | 19° |
| 2026-05-01 12:43 | 55.45378 | 12.77631 | 7792 ft | 291 kts | 19° |
| 2026-05-01 12:44 | 55.47275 | 12.78721 | 7491 ft | 288 kts | 19° |
| 2026-05-01 12:44 | 55.49175 | 12.79814 | 7190 ft | 285 kts | 19° |
| 2026-05-01 12:44 | 55.52895 | 12.81957 | 6602 ft | 280 kts | 19° |
| 2026-05-01 12:45 | 55.56544 | 12.84172 | 6012 ft | 275 kts | 23° |
| 2026-05-01 12:45 | 55.58308 | 12.85427 | 5721 ft | 273 kts | 24° |
| 2026-05-01 12:45 | 55.60067 | 12.86704 | 5428 ft | 271 kts | 24° |
| 2026-05-01 12:46 | 55.61792 | 12.87994 | 5135 ft | 268 kts | 28° |
| 2026-05-01 12:46 | 55.63363 | 12.89660 | 4858 ft | 265 kts | 39° |
| 2026-05-01 12:46 | 55.64778 | 12.91724 | 4570 ft | 263 kts | 44° |
| 2026-05-01 12:46 | 55.66131 | 12.93867 | 4286 ft | 261 kts | 44° |
| 2026-05-01 12:47 | 55.67469 | 12.96002 | 4056 ft | 255 kts | 44° |
| 2026-05-01 12:47 | 55.68767 | 12.98053 | 4016 ft | 241 kts | 44° |
| 2026-05-01 12:47 | 55.69976 | 12.99947 | 3982 ft | 228 kts | 43° |
| 2026-05-01 12:47 | 55.71374 | 13.01330 | 3971 ft | 233 kts | 12° |
| 2026-05-01 12:48 | 55.72918 | 13.01085 | 4020 ft | 223 kts | 335° |
| 2026-05-01 12:48 | 55.74129 | 12.99408 | 3929 ft | 223 kts | 313° |
| 2026-05-01 12:48 | 55.75134 | 12.97332 | 3640 ft | 222 kts | 311° |
| 2026-05-01 12:48 | 55.75947 | 12.95613 | 3422 ft | 219 kts | 311° |
| 2026-05-01 12:49 | 55.76720 | 12.93900 | 3204 ft | 218 kts | 303° |
| 2026-05-01 12:49 | 55.77133 | 12.91316 | 2913 ft | 222 kts | 269° |
| 2026-05-01 12:49 | 55.76659 | 12.88736 | 2645 ft | 225 kts | 234° |
| 2026-05-01 12:49 | 55.75594 | 12.86741 | 2494 ft | 219 kts | 219° |
| 2026-05-01 12:50 | 55.74463 | 12.85060 | 2507 ft | 204 kts | 217° |
| 2026-05-01 12:50 | 55.73420 | 12.83537 | 2563 ft | 183 kts | 217° |
| 2026-05-01 12:50 | 55.72470 | 12.82114 | 2493 ft | 178 kts | 218° |
| 2026-05-01 12:50 | 55.71539 | 12.80693 | 2353 ft | 177 kts | 218° |
| 2026-05-01 12:51 | 55.70633 | 12.79290 | 2105 ft | 166 kts | 219° |
| 2026-05-01 12:51 | 55.69809 | 12.78008 | 1877 ft | 152 kts | 219° |
| 2026-05-01 12:51 | 55.68336 | 12.75724 | 1495 ft | 135 kts | 219° |
| 2026-05-01 12:52 | 55.67628 | 12.74630 | 1328 ft | 135 kts | 219° |
| 2026-05-01 12:52 | 55.66206 | 12.72429 | 980 ft | 135 kts | 219° |
| 2026-05-01 12:52 | 55.65503 | 12.71340 | 800 ft | 134 kts | 219° |
| 2026-05-01 12:53 | 55.64100 | 12.69168 | 435 ft | 134 kts | 220° |
| 2026-05-01 12:53 | 55.63397 | 12.68081 | 254 ft | 134 kts | 220° |
| 2026-05-01 12:53 | 55.62704 | 12.67009 | 85 ft | 133 kts | 220° |
| 2026-05-01 12:54 | 55.62032 | 12.65976 | 13 ft | 114 kts | 220° |
| 2026-05-01 12:54 | 55.61364 | 12.64928 | 15 ft | 19 kts | 226° |
| 2026-05-01 12:54 | 55.61282 | 12.64731 | 15 ft | 20 kts | 244° |
| 2026-05-01 12:55 | 55.61180 | 12.64243 | 15 ft | 20 kts | 251° |
| 2026-05-01 12:55 | 55.61236 | 12.64104 | 16 ft | 16 kts | 356° |
| 2026-05-01 12:55 | 55.61343 | 12.64185 | 15 ft | 17 kts | 32° |
| 2026-05-01 12:56 | 55.61443 | 12.64300 | 16 ft | 17 kts | 33° |
| 2026-05-01 12:56 | 55.61552 | 12.64426 | 15 ft | 19 kts | 32° |
| 2026-05-01 12:56 | 55.61669 | 12.64560 | 15 ft | 20 kts | 33° |
| 2026-05-01 12:56 | 55.61785 | 12.64693 | 15 ft | 20 kts | 33° |
| 2026-05-01 12:57 | 55.61902 | 12.64828 | 15 ft | 20 kts | 33° |
| 2026-05-01 12:57 | 55.62139 | 12.65101 | 15 ft | 20 kts | 33° |
| 2026-05-01 12:57 | 55.62254 | 12.65127 | 17 ft | 18 kts | 307° |
| 2026-05-01 12:58 | 55.62324 | 12.64939 | 17 ft | 18 kts | 303° |
| 2026-05-01 12:58 | 55.62400 | 12.64736 | 16 ft | 19 kts | 303° |
| 2026-05-01 12:58 | 55.62498 | 12.64656 | 18 ft | 15 kts | 353° |
| 2026-05-01 12:59 | 55.62683 | 12.64649 | 18 ft | 9 kts | 308° |
| 2026-05-01 12:59 | 55.62696 | 12.64579 | 18 ft | 0 kts | 281° |